createdAt,value
2022-09-12T00:00:04.724Z,21.57
2022-09-12T00:05:08.434Z,21.64
2022-09-12T00:10:07.154Z,21.54
2022-09-12T00:15:04.456Z,21.73
2022-09-12T00:20:04.034Z,21.59
2022-09-12T00:25:01.205Z,21.59
2022-09-12T00:29:58.593Z,21.52
2022-09-12T00:34:55.276Z,21.28
2022-09-12T00:39:51.973Z,21.29
2022-09-12T00:44:49.797Z,21.29
2022-09-12T00:49:48.428Z,21.31
2022-09-12T00:54:47.688Z,21.01
2022-09-12T00:59:46.891Z,21.06
2022-09-12T01:04:44.376Z,20.91
2022-09-12T01:09:42.771Z,20.89
2022-09-12T01:14:40.660Z,20.92
2022-09-12T01:19:52.323Z,20.99
2022-09-12T01:24:54.677Z,21.02
2022-09-12T01:30:04.171Z,20.99
2022-09-12T01:35:05.199Z,20.61
2022-09-12T01:40:07.037Z,20.57
2022-09-12T01:45:08.232Z,20.53
2022-09-12T01:50:07.089Z,20.49
2022-09-12T01:55:09.745Z,20.38
2022-09-12T02:00:10.089Z,20.44
2022-09-12T02:05:17.342Z,20.12
2022-09-12T02:10:15.905Z,20.36
2022-09-12T02:15:12.756Z,19.88
2022-09-12T02:20:25.891Z,19.97
2022-09-12T02:25:31.364Z,19.80
2022-09-12T02:30:31.272Z,19.76
2022-09-12T02:35:33.370Z,19.61
2022-09-12T02:40:30.395Z,19.13
2022-09-12T02:45:31.702Z,19.05
2022-09-12T02:50:28.719Z,19.01
2022-09-12T02:55:25.899Z,19.17
2022-09-12T03:00:23.572Z,19.09
2022-09-12T03:05:24.782Z,19.09
2022-09-12T03:10:24.704Z,19.02
2022-09-12T03:15:28.954Z,19.11
2022-09-12T03:20:32.982Z,19.40
2022-09-12T03:25:33.552Z,19.22
2022-09-12T03:30:30.442Z,18.85
2022-09-12T03:35:27.083Z,18.74
2022-09-12T03:40:24.345Z,18.67
2022-09-12T03:45:21.421Z,18.75
2022-09-12T03:50:18.028Z,18.61
2022-09-12T03:55:14.777Z,18.47
2022-09-12T04:00:16.403Z,18.22
2022-09-12T04:05:15.820Z,18.14
2022-09-12T04:10:12.428Z,18.35
2022-09-12T04:15:09.577Z,18.37
2022-09-12T04:20:07.257Z,18.43
2022-09-12T04:25:06.929Z,18.35
2022-09-12T04:30:03.941Z,18.02
2022-09-12T04:35:00.449Z,17.87
2022-09-12T04:39:58.768Z,18.13
2022-09-12T04:44:55.638Z,18.12
2022-09-12T04:49:52.483Z,18.18
2022-09-12T04:54:55.820Z,18.24
2022-09-12T04:59:53.173Z,18.19
2022-09-12T05:04:49.909Z,18.16
2022-09-12T05:11:24.776Z,18.21
2022-09-12T05:15:14.608Z,18.31
2022-09-12T05:20:12.359Z,18.41
2022-09-12T05:25:09.619Z,18.43
2022-09-12T05:30:07.016Z,18.46
2022-09-12T05:35:06.435Z,18.56
2022-09-12T05:40:07.076Z,18.77
2022-09-12T05:45:04.341Z,18.91
2022-09-12T05:50:01.256Z,18.88
2022-09-12T05:55:00.606Z,18.92
2022-09-12T05:59:58.614Z,19.29
2022-09-12T06:05:00.226Z,19.62
2022-09-12T06:09:58.698Z,20.02
2022-09-12T06:14:56.298Z,20.08
2022-09-12T06:19:53.026Z,19.78
2022-09-12T06:24:49.789Z,20.12
2022-09-12T06:29:46.673Z,20.12
2022-09-12T06:34:47.994Z,20.17
2022-09-12T06:39:44.861Z,20.16
2022-09-12T06:44:41.554Z,20.12
2022-09-12T06:49:38.276Z,20.23
2022-09-12T06:54:37.876Z,20.30
2022-09-12T06:59:34.789Z,20.48
2022-09-12T07:04:33.280Z,21.01
2022-09-12T07:09:30.311Z,21.25
2022-09-12T07:14:50.597Z,21.54
2022-09-12T07:19:54.942Z,21.88
2022-09-12T07:24:55.289Z,21.84
2022-09-12T07:29:51.992Z,21.93
2022-09-12T07:34:50.539Z,21.43
2022-09-12T07:39:48.035Z,21.43
2022-09-12T07:44:45.093Z,21.28
2022-09-12T07:49:44.554Z,21.62
2022-09-12T07:54:41.302Z,21.62
2022-09-12T08:06:23.323Z,21.73
2022-09-12T08:11:21.347Z,21.91
2022-09-12T08:16:21.966Z,21.97
2022-09-12T08:21:22.650Z,21.99
2022-09-12T08:26:22.940Z,22.08
2022-09-12T08:31:23.407Z,22.25
2022-09-12T08:36:23.991Z,22.42
2022-09-12T08:41:23.802Z,22.89
2022-09-12T08:46:22.920Z,22.98
2022-09-12T08:51:20.770Z,22.78
2022-09-12T08:56:21.664Z,23.06
2022-09-12T09:01:23.602Z,23.14
2022-09-12T09:06:26.286Z,23.31
2022-09-12T09:11:37.666Z,23.42
2022-09-12T09:16:43.733Z,23.54
2022-09-12T09:21:43.030Z,23.58
2022-09-12T09:26:45.483Z,23.78
2022-09-12T09:31:42.339Z,23.98
2022-09-12T09:36:46.703Z,24.22
2022-09-12T09:41:54.428Z,24.31
2022-09-12T09:46:55.596Z,24.33
2022-09-12T09:51:54.856Z,24.36
2022-09-12T09:56:54.958Z,24.29
2022-09-12T10:01:54.462Z,24.42
2022-09-12T10:06:57.850Z,24.60
2022-09-12T10:11:56.543Z,24.67
2022-09-12T10:16:53.298Z,24.96
2022-09-12T10:21:52.980Z,25.00
2022-09-12T10:26:56.709Z,24.83
2022-09-12T10:31:56.111Z,25.26
2022-09-12T10:36:54.060Z,25.45
2022-09-12T10:41:50.815Z,25.36
2022-09-12T10:46:51.211Z,25.25
2022-09-12T10:51:51.536Z,25.26
2022-09-12T10:56:56.541Z,25.51
2022-09-12T11:02:00.712Z,25.66
2022-09-12T11:07:05.050Z,25.53
2022-09-12T11:12:08.698Z,25.77
2022-09-12T11:17:13.550Z,25.75
2022-09-12T11:22:20.354Z,25.65
2022-09-12T11:27:30.863Z,25.67
2022-09-12T11:32:44.777Z,25.99
2022-09-12T11:37:59.935Z,25.85
2022-09-12T11:43:00.795Z,25.84
2022-09-12T11:47:59.487Z,25.96
2022-09-12T11:53:02.676Z,25.97
2022-09-12T11:58:00.288Z,26.11
2022-09-12T12:03:02.742Z,26.24
2022-09-12T12:08:00.560Z,26.53
2022-09-12T12:12:58.941Z,26.77
2022-09-12T12:18:06.971Z,26.61
2022-09-12T12:23:05.602Z,26.46
2022-09-12T12:28:05.003Z,26.61
2022-09-12T12:33:26.542Z,26.69
2022-09-12T12:38:40.083Z,26.64
2022-09-12T12:54:58.632Z,27.10
2022-09-12T13:00:21.492Z,27.23
2022-09-12T13:05:20.911Z,26.99
2022-09-12T13:10:23.451Z,27.14
2022-09-12T13:16:01.256Z,27.17
2022-09-12T13:21:13.527Z,27.08
2022-09-12T13:26:12.357Z,27.06
2022-09-12T13:31:12.574Z,26.94
2022-09-12T13:36:43.784Z,26.97
2022-09-12T13:41:51.086Z,27.04
2022-09-12T13:46:48.514Z,27.07
2022-09-12T13:51:45.328Z,27.10
2022-09-12T13:56:47.937Z,27.00
2022-09-12T14:01:45.943Z,26.59
2022-09-12T14:06:58.111Z,26.64
2022-09-12T14:11:56.237Z,26.65
2022-09-12T14:16:54.316Z,26.67
2022-09-12T14:21:52.699Z,26.50
2022-09-12T14:26:51.468Z,26.67
2022-09-12T14:31:59.783Z,26.66
2022-09-12T14:36:57.274Z,26.71
2022-09-12T14:49:00.684Z,26.69
2022-09-12T14:53:59.027Z,26.81
2022-09-12T14:59:22.855Z,26.76
2022-09-12T15:04:34.402Z,26.73
2022-09-12T15:09:43.908Z,26.58
2022-09-12T15:14:43.488Z,26.63
2022-09-12T15:19:41.406Z,26.52
2022-09-12T15:24:39.414Z,26.34
2022-09-12T15:29:36.244Z,26.09
2022-09-12T15:34:34.156Z,25.77
2022-09-12T15:39:30.905Z,25.85
2022-09-12T15:44:28.220Z,25.86
2022-09-12T15:49:33.886Z,25.88
2022-09-12T15:54:32.948Z,25.90
2022-09-12T15:59:30.522Z,26.01
2022-09-12T16:04:27.896Z,26.06
2022-09-12T16:09:24.657Z,25.99
2022-09-12T16:14:23.038Z,26.02
2022-09-12T16:19:21.553Z,26.13
2022-09-12T16:24:18.300Z,26.26
2022-09-12T16:29:15.063Z,26.36
2022-09-12T16:34:16.529Z,26.30
2022-09-12T16:39:16.336Z,25.96
2022-09-12T16:44:13.165Z,25.84
2022-09-12T16:49:10.344Z,25.69
2022-09-12T16:54:07.135Z,25.55
2022-09-12T16:59:09.175Z,25.43
2022-09-12T17:04:06.209Z,25.19
2022-09-12T17:10:04.057Z,25.20
2022-09-12T17:15:05.937Z,25.05
2022-09-12T17:20:05.114Z,24.71
2022-09-12T17:25:01.875Z,24.64
2022-09-12T17:29:58.522Z,24.31
2022-09-12T17:35:23.750Z,24.34
2022-09-12T17:40:32.612Z,24.34
2022-09-12T17:45:38.134Z,24.48
2022-09-12T17:50:38.834Z,24.41
2022-09-12T17:55:43.090Z,24.13
2022-09-12T18:01:00.433Z,23.19
2022-09-12T18:05:57.102Z,22.07
2022-09-12T18:10:54.454Z,21.63
2022-09-12T18:15:51.352Z,21.74
2022-09-12T18:20:51.263Z,21.59
2022-09-12T18:25:48.277Z,21.74
2022-09-12T18:30:45.597Z,21.68
2022-09-12T18:35:42.412Z,21.75
2022-09-12T18:40:39.322Z,21.77
2022-09-12T18:45:36.079Z,21.66
2022-09-12T18:50:33.547Z,21.82
2022-09-12T18:55:30.408Z,21.95
2022-09-12T19:00:27.259Z,22.24
2022-09-12T19:05:24.089Z,22.84
2022-09-12T19:10:21.513Z,23.46
2022-09-12T19:15:21.023Z,23.71
2022-09-12T19:20:18.089Z,23.98
2022-09-12T19:25:14.941Z,23.44
2022-09-12T19:30:12.633Z,23.17
2022-09-12T19:35:12.268Z,23.19
2022-09-12T19:40:09.356Z,23.26
2022-09-12T19:45:06.806Z,23.30
2022-09-12T19:50:04.942Z,23.48
2022-09-12T19:55:01.620Z,23.71
2022-09-12T19:59:58.327Z,23.75
2022-09-12T20:04:55.075Z,23.91
2022-09-12T20:09:52.472Z,24.11
2022-09-12T20:14:49.140Z,24.04
2022-09-12T20:19:46.001Z,23.87
2022-09-12T20:24:42.826Z,23.35
2022-09-12T20:29:40.412Z,23.43
2022-09-12T20:34:37.114Z,23.52
2022-09-12T20:39:33.832Z,23.41
2022-09-12T20:44:30.538Z,22.92
2022-09-12T20:49:27.964Z,22.95
2022-09-12T20:54:24.972Z,22.79
2022-09-12T20:59:21.929Z,22.77
2022-09-12T21:04:18.838Z,22.96
2022-09-12T21:09:16.370Z,22.78
2022-09-12T21:14:16.212Z,22.91
2022-09-12T21:19:13.368Z,22.93
2022-09-12T21:24:13.031Z,22.54
2022-09-12T21:29:10.477Z,22.24
2022-09-12T21:34:07.035Z,22.10
2022-09-12T21:39:04.320Z,22.41
2022-09-12T21:44:01.247Z,22.05
2022-09-12T21:49:00.519Z,22.08
2022-09-12T21:53:57.092Z,21.85
2022-09-12T21:58:55.451Z,21.64
2022-09-12T22:03:52.543Z,21.58
2022-09-12T22:08:49.816Z,21.30
2022-09-12T22:13:46.362Z,21.36
2022-09-12T22:18:42.883Z,21.51
2022-09-12T22:23:59.678Z,21.35
2022-09-12T22:28:56.864Z,21.34
2022-09-12T22:33:54.118Z,20.98
2022-09-12T22:38:50.746Z,21.17
2022-09-12T22:43:47.433Z,21.26
2022-09-12T22:48:45.105Z,21.16
2022-09-12T22:53:41.961Z,20.75
2022-09-12T22:58:38.533Z,20.77
2022-09-12T23:03:35.672Z,20.47
2022-09-12T23:08:33.591Z,20.15
2022-09-12T23:13:30.405Z,20.49
2022-09-12T23:18:27.364Z,20.68
2022-09-12T23:23:23.847Z,20.77
2022-09-12T23:28:22.066Z,20.64
2022-09-12T23:33:18.580Z,20.77
2022-09-12T23:38:15.196Z,20.81
2022-09-12T23:43:11.787Z,20.60
2022-09-12T23:48:09.174Z,20.91
2022-09-12T23:53:06.442Z,21.15
2022-09-12T23:58:03.003Z,21.15
